createdAt,value
2019-02-23T00:00:13.163Z,8.50
2019-02-23T00:02:42.393Z,8.50
2019-02-23T00:05:11.586Z,8.50
2019-02-23T00:07:40.724Z,8.50
2019-02-23T00:10:09.954Z,8.50
2019-02-23T00:12:39.146Z,8.50
2019-02-23T00:15:08.332Z,8.50
2019-02-23T00:17:37.562Z,8.50
2019-02-23T00:20:08.520Z,8.50
2019-02-23T00:22:37.760Z,8.40
2019-02-23T00:25:06.874Z,8.40
2019-02-23T00:27:36.074Z,8.50
2019-02-23T00:30:07.260Z,8.40
2019-02-23T00:32:36.400Z,8.40
2019-02-23T00:35:05.604Z,8.40
2019-02-23T00:37:34.824Z,8.40
2019-02-23T00:40:04.108Z,8.30
2019-02-23T00:42:33.251Z,8.20
2019-02-23T00:45:02.390Z,8.20
2019-02-23T00:47:31.556Z,8.10
2019-02-23T00:50:00.660Z,8.10
2019-02-23T00:52:29.793Z,8.00
2019-02-23T00:54:59.007Z,7.90
2019-02-23T00:57:28.124Z,7.90
2019-02-23T00:59:57.276Z,7.80
2019-02-23T01:02:26.490Z,7.80
2019-02-23T01:04:55.644Z,7.70
2019-02-23T01:07:24.762Z,7.70
2019-02-23T01:09:53.901Z,7.70
2019-02-23T01:12:23.924Z,7.60
2019-02-23T01:14:53.111Z,7.60
2019-02-23T01:17:22.218Z,7.60
2019-02-23T01:19:51.364Z,7.60
2019-02-23T01:22:20.502Z,7.60
2019-02-23T01:24:49.639Z,7.60
2019-02-23T01:27:18.838Z,7.60
2019-02-23T01:29:48.054Z,7.70
2019-02-23T01:32:17.180Z,7.70
2019-02-23T01:34:47.935Z,7.70
2019-02-23T01:37:17.095Z,7.70
2019-02-23T01:39:46.244Z,7.70
2019-02-23T01:42:15.455Z,7.70
2019-02-23T01:44:44.756Z,7.80
2019-02-23T01:47:13.892Z,7.80
2019-02-23T01:49:43.039Z,7.80
2019-02-23T01:52:12.174Z,7.80
2019-02-23T01:54:41.337Z,7.70
2019-02-23T01:57:10.502Z,7.70
2019-02-23T01:59:39.623Z,7.70
2019-02-23T02:02:08.845Z,7.60
2019-02-23T02:04:38.049Z,7.60
2019-02-23T02:07:07.576Z,7.60
2019-02-23T02:09:36.713Z,7.50
2019-02-23T02:12:07.508Z,7.40
2019-02-23T02:14:36.618Z,7.40
2019-02-23T02:17:05.781Z,7.30
2019-02-23T02:19:35.551Z,7.30
2019-02-23T02:22:04.698Z,7.20
2019-02-23T02:24:33.826Z,7.20
2019-02-23T02:27:03.105Z,7.20
2019-02-23T02:29:32.240Z,7.10
2019-02-23T02:32:01.383Z,7.10
2019-02-23T02:34:30.493Z,7.00
2019-02-23T02:36:59.642Z,7.00
2019-02-23T02:39:28.812Z,6.90
2019-02-23T02:41:57.946Z,6.90
2019-02-23T02:44:27.144Z,6.90
2019-02-23T02:46:56.264Z,6.80
2019-02-23T02:49:25.410Z,6.80
2019-02-23T02:51:54.523Z,6.80
2019-02-23T02:54:23.670Z,6.70
2019-02-23T02:56:52.881Z,6.70
2019-02-23T02:59:21.999Z,6.70
2019-02-23T03:01:51.145Z,6.70
2019-02-23T03:04:20.342Z,6.60
2019-02-23T03:06:49.398Z,6.60
2019-02-23T03:09:18.566Z,6.60
2019-02-23T03:11:47.739Z,6.60
2019-02-23T03:14:16.974Z,6.60
2019-02-23T03:16:46.064Z,6.60
2019-02-23T03:19:15.345Z,6.50
2019-02-23T03:21:44.549Z,6.50
2019-02-23T03:24:13.698Z,6.50
2019-02-23T03:26:42.844Z,6.40
2019-02-23T03:29:11.996Z,6.40
2019-02-23T03:31:41.099Z,6.40
2019-02-23T03:34:10.262Z,6.40
2019-02-23T03:36:39.407Z,6.30
2019-02-23T03:39:08.541Z,6.30
2019-02-23T03:41:37.665Z,6.30
2019-02-23T03:44:06.806Z,6.30
2019-02-23T03:46:35.923Z,6.20
2019-02-23T03:49:05.082Z,6.20
2019-02-23T03:51:34.244Z,6.20
2019-02-23T03:54:03.452Z,6.20
2019-02-23T03:56:32.589Z,6.10
2019-02-23T03:59:01.704Z,6.10
2019-02-23T04:01:30.836Z,6.10
2019-02-23T04:04:01.580Z,6.10
2019-02-23T04:06:30.753Z,6.00
2019-02-23T04:09:02.611Z,6.00
2019-02-23T04:11:30.782Z,6.00
2019-02-23T04:13:59.876Z,6.00
2019-02-23T04:16:29.039Z,6.00
2019-02-23T04:18:58.226Z,6.00
2019-02-23T04:21:27.393Z,6.00
2019-02-23T04:23:56.614Z,6.10
2019-02-23T04:26:25.818Z,6.00
2019-02-23T04:28:54.938Z,6.00
2019-02-23T04:31:24.107Z,6.00
2019-02-23T04:33:53.248Z,6.00
2019-02-23T04:36:22.393Z,6.00
2019-02-23T04:38:51.567Z,6.00
2019-02-23T04:41:20.711Z,6.00
2019-02-23T04:43:49.831Z,6.00
2019-02-23T04:46:18.993Z,6.10
2019-02-23T04:48:48.114Z,6.10
2019-02-23T04:51:17.309Z,6.10
2019-02-23T04:53:46.411Z,6.10
2019-02-23T04:56:15.603Z,6.20
2019-02-23T04:58:44.730Z,6.20
2019-02-23T05:01:13.861Z,6.20
2019-02-23T05:03:42.987Z,6.30
2019-02-23T05:06:12.142Z,6.30
2019-02-23T05:08:41.298Z,6.30
2019-02-23T05:11:10.663Z,6.30
2019-02-23T05:13:39.828Z,6.30
2019-02-23T05:16:08.912Z,6.30
2019-02-23T05:18:38.054Z,6.30
2019-02-23T05:21:07.209Z,6.30
2019-02-23T05:23:36.368Z,6.30
2019-02-23T05:26:05.561Z,6.30
2019-02-23T05:28:34.720Z,6.30
2019-02-23T05:31:03.845Z,6.20
2019-02-23T05:33:32.979Z,6.20
2019-02-23T05:36:02.159Z,6.10
2019-02-23T05:38:31.279Z,6.10
2019-02-23T05:41:00.428Z,6.00
2019-02-23T05:43:29.557Z,6.00
2019-02-23T05:45:58.651Z,5.90
2019-02-23T05:48:27.822Z,5.90
2019-02-23T05:50:56.997Z,5.80
2019-02-23T05:53:26.159Z,5.80
2019-02-23T05:55:55.293Z,5.70
2019-02-23T05:58:24.408Z,5.70
2019-02-23T06:00:53.548Z,5.70
2019-02-23T06:03:25.441Z,5.70
2019-02-23T06:05:54.255Z,5.60
2019-02-23T06:08:23.467Z,5.60
2019-02-23T06:10:52.580Z,5.60
2019-02-23T06:13:21.718Z,5.50
2019-02-23T06:15:50.859Z,5.50
2019-02-23T06:18:20.385Z,5.50
2019-02-23T06:20:49.567Z,5.50
2019-02-23T06:23:18.773Z,5.40
2019-02-23T06:25:49.549Z,5.40
2019-02-23T06:28:18.703Z,5.30
2019-02-23T06:30:47.847Z,5.30
2019-02-23T06:33:17.051Z,5.20
2019-02-23T06:35:48.135Z,5.20
2019-02-23T06:38:17.302Z,5.10
2019-02-23T06:40:46.614Z,5.10
2019-02-23T06:43:15.721Z,5.10
2019-02-23T06:45:44.872Z,5.10
2019-02-23T06:48:14.015Z,5.00
2019-02-23T06:50:43.247Z,5.10
2019-02-23T06:53:12.379Z,5.00
2019-02-23T06:55:41.531Z,5.00
2019-02-23T06:58:10.757Z,5.00
2019-02-23T07:00:39.888Z,5.00
2019-02-23T07:03:09.044Z,4.90
2019-02-23T07:05:38.219Z,4.90
2019-02-23T07:08:07.343Z,4.90
2019-02-23T07:10:36.548Z,4.90
2019-02-23T07:13:05.760Z,4.90
2019-02-23T07:15:34.921Z,4.90
2019-02-23T07:18:04.047Z,4.90
2019-02-23T07:20:43.423Z,4.90
2019-02-23T07:23:04.065Z,5.00
2019-02-23T07:25:33.161Z,5.00
2019-02-23T07:28:02.328Z,5.00
2019-02-23T07:30:31.478Z,5.00
2019-02-23T07:33:00.651Z,5.00
2019-02-23T07:35:29.846Z,5.00
2019-02-23T07:37:58.961Z,5.00
2019-02-23T07:40:28.192Z,5.10
2019-02-23T07:42:57.326Z,5.10
2019-02-23T07:45:26.470Z,5.10
2019-02-23T07:47:55.651Z,5.10
2019-02-23T07:50:24.773Z,5.10
2019-02-23T07:52:53.928Z,5.10
2019-02-23T07:55:23.141Z,5.20
2019-02-23T07:57:52.294Z,5.20
2019-02-23T08:00:21.419Z,5.20
2019-02-23T08:02:50.648Z,5.30
2019-02-23T08:05:19.768Z,5.30
2019-02-23T08:07:48.891Z,5.40
2019-02-23T08:10:18.059Z,5.40
2019-02-23T08:12:47.215Z,5.50
2019-02-23T08:15:16.338Z,5.50
2019-02-23T08:17:45.495Z,5.60
2019-02-23T08:20:14.831Z,5.70
2019-02-23T08:22:43.976Z,5.70
2019-02-23T08:25:15.593Z,5.80
2019-02-23T08:27:44.723Z,5.80
2019-02-23T08:30:16.291Z,5.90
2019-02-23T08:32:45.431Z,5.90
2019-02-23T08:35:14.579Z,6.00
2019-02-23T08:37:43.719Z,6.00
2019-02-23T08:40:16.179Z,6.10
2019-02-23T08:42:45.278Z,6.10
2019-02-23T08:45:14.401Z,6.20
2019-02-23T08:47:43.558Z,6.20
2019-02-23T08:50:15.228Z,6.30
2019-02-23T08:52:49.219Z,6.30
2019-02-23T08:55:15.281Z,6.40
2019-02-23T08:57:44.413Z,6.40
2019-02-23T09:00:19.148Z,6.50
2019-02-23T09:02:48.297Z,6.50
2019-02-23T09:05:19.052Z,6.50
2019-02-23T09:07:48.213Z,6.60
2019-02-23T09:10:17.463Z,6.60
2019-02-23T09:12:46.637Z,6.70
2019-02-23T09:15:15.869Z,6.70
2019-02-23T09:17:45.032Z,6.80
2019-02-23T09:20:14.198Z,6.80
2019-02-23T09:22:45.009Z,6.80
2019-02-23T09:25:14.156Z,6.90
2019-02-23T09:27:43.280Z,6.90
2019-02-23T09:30:16.236Z,7.00
2019-02-23T09:32:45.394Z,7.00
2019-02-23T09:35:14.611Z,7.10
2019-02-23T09:37:43.733Z,7.10
2019-02-23T09:40:16.253Z,7.10
2019-02-23T09:42:45.418Z,7.20
2019-02-23T09:45:14.628Z,7.30
2019-02-23T09:47:43.801Z,7.30
2019-02-23T09:50:12.943Z,7.30
2019-02-23T09:52:42.090Z,7.40
2019-02-23T09:55:11.236Z,7.40
2019-02-23T09:57:40.418Z,7.40
2019-02-23T10:00:13.858Z,7.50
2019-02-23T10:02:43.004Z,7.50
2019-02-23T10:05:12.169Z,7.60
2019-02-23T10:07:41.304Z,7.60
2019-02-23T10:10:11.747Z,7.70
2019-02-23T10:12:42.546Z,7.70
2019-02-23T10:15:12.136Z,7.80
2019-02-23T10:17:41.288Z,7.80
2019-02-23T10:20:13.138Z,7.90
2019-02-23T10:22:42.280Z,7.90
2019-02-23T10:25:11.444Z,8.00
2019-02-23T10:27:40.577Z,8.00
2019-02-23T10:30:13.737Z,8.10
2019-02-23T10:32:42.895Z,8.10
2019-02-23T10:35:13.945Z,8.20
2019-02-23T10:37:43.105Z,8.20
2019-02-23T10:40:13.102Z,8.20
2019-02-23T10:42:42.303Z,8.30
2019-02-23T10:45:13.103Z,8.30
2019-02-23T10:47:42.300Z,8.40
2019-02-23T10:50:16.885Z,8.40
2019-02-23T10:52:46.026Z,8.50
2019-02-23T10:55:15.909Z,8.50
2019-02-23T10:57:45.045Z,8.60
2019-02-23T11:00:21.075Z,8.60
2019-02-23T11:02:50.216Z,8.60
2019-02-23T11:05:20.566Z,8.70
2019-02-23T11:07:49.720Z,8.70
2019-02-23T11:10:19.021Z,8.70
2019-02-23T11:12:48.268Z,8.70
2019-02-23T11:15:19.086Z,8.70
2019-02-23T11:17:48.248Z,8.70
2019-02-23T11:20:17.898Z,8.70
2019-02-23T11:22:47.036Z,8.80
2019-02-23T11:25:16.212Z,8.80
2019-02-23T11:27:45.836Z,8.80
2019-02-23T11:30:16.503Z,8.80
2019-02-23T11:32:45.663Z,8.80
2019-02-23T11:35:17.636Z,8.90
2019-02-23T11:37:47.081Z,9.00
2019-02-23T11:40:17.058Z,9.00
2019-02-23T11:42:46.224Z,9.10
2019-02-23T11:45:15.364Z,9.10
2019-02-23T11:47:44.507Z,9.10
2019-02-23T11:50:14.365Z,9.20
2019-02-23T11:52:43.536Z,9.20
2019-02-23T11:55:12.692Z,9.20
2019-02-23T11:57:41.885Z,9.20
2019-02-23T12:00:13.920Z,9.20
2019-02-23T12:02:51.940Z,9.20
2019-02-23T12:05:13.986Z,9.30
2019-02-23T12:07:43.175Z,9.30
2019-02-23T12:10:16.057Z,9.30
2019-02-23T12:12:45.212Z,9.30
2019-02-23T12:15:14.463Z,9.40
2019-02-23T12:17:43.583Z,9.40
2019-02-23T12:20:14.375Z,9.40
2019-02-23T12:22:43.529Z,9.50
2019-02-23T12:25:15.943Z,9.50
2019-02-23T12:27:43.582Z,9.60
2019-02-23T12:30:12.791Z,9.60
2019-02-23T12:32:42.024Z,9.70
2019-02-23T12:35:12.112Z,9.70
2019-02-23T12:37:41.358Z,9.70
2019-02-23T12:40:11.250Z,9.80
2019-02-23T12:42:43.061Z,9.80
2019-02-23T12:45:13.635Z,9.80
2019-02-23T12:47:42.850Z,9.90
2019-02-23T12:50:13.320Z,9.90
2019-02-23T12:52:42.470Z,9.90
2019-02-23T12:55:12.378Z,9.90
2019-02-23T12:57:41.694Z,10.00
2019-02-23T13:00:17.362Z,10.00
2019-02-23T13:02:46.499Z,10.00
2019-02-23T13:05:15.653Z,10.00
2019-02-23T13:07:44.787Z,10.10
2019-02-23T13:10:14.305Z,10.10
2019-02-23T13:13:32.201Z,10.10
2019-02-23T13:16:18.257Z,10.10
2019-02-23T13:19:09.932Z,10.10
2019-02-23T13:22:09.573Z,10.10
2019-02-23T13:25:01.866Z,10.10
2019-02-23T13:27:47.177Z,10.10
2019-02-23T13:30:38.932Z,10.10
2019-02-23T13:33:30.797Z,10.10
2019-02-23T13:36:24.198Z,10.10
2019-02-23T13:39:15.709Z,10.10
2019-02-23T13:42:11.149Z,10.10
2019-02-23T13:44:56.362Z,10.10
2019-02-23T13:47:57.271Z,10.10
2019-02-23T13:50:52.175Z,10.10
2019-02-23T13:53:35.127Z,10.20
2019-02-23T13:56:28.989Z,10.20
2019-02-23T13:59:14.985Z,10.20
2019-02-23T14:01:51.609Z,10.20
2019-02-23T14:04:34.309Z,10.20
2019-02-23T14:07:27.905Z,10.20
2019-02-23T14:10:43.060Z,10.20
2019-02-23T14:13:33.908Z,10.20
2019-02-23T14:16:25.677Z,10.20
2019-02-23T14:19:02.535Z,10.30
2019-02-23T14:21:51.274Z,10.20
2019-02-23T14:24:50.178Z,10.20
2019-02-23T14:27:50.686Z,10.20
2019-02-23T14:30:55.128Z,10.20
2019-02-23T14:33:44.131Z,10.30
2019-02-23T14:36:38.781Z,10.30
2019-02-23T14:39:41.723Z,10.30
2019-02-23T14:42:18.672Z,10.30
2019-02-23T14:44:55.416Z,10.30
2019-02-23T14:47:49.030Z,10.30
2019-02-23T14:50:59.105Z,10.30
2019-02-23T14:53:38.901Z,10.30
2019-02-23T14:56:35.570Z,10.30
2019-02-23T14:59:37.030Z,10.30
2019-02-23T15:02:55.795Z,10.20
2019-02-23T15:05:53.345Z,10.20
2019-02-23T15:08:27.402Z,10.20
2019-02-23T15:11:13.095Z,10.20
2019-02-23T15:14:17.516Z,10.20
2019-02-23T15:17:13.521Z,10.20
2019-02-23T15:20:30.920Z,10.20
2019-02-23T15:23:23.091Z,10.10
2019-02-23T15:26:28.885Z,10.10
2019-02-23T15:29:33.058Z,10.10
2019-02-23T15:32:26.729Z,10.10
2019-02-23T15:35:06.665Z,10.10
2019-02-23T15:37:58.376Z,10.10
2019-02-23T15:41:18.092Z,10.10
2019-02-23T15:43:57.475Z,10.10
2019-02-23T15:46:40.537Z,10.00
2019-02-23T15:49:32.938Z,10.00
2019-02-23T15:52:03.587Z,10.00
2019-02-23T15:54:32.734Z,10.00
2019-02-23T15:57:01.906Z,10.00
2019-02-23T15:59:31.035Z,10.00
2019-02-23T16:02:00.212Z,10.00
2019-02-23T16:04:29.376Z,10.00
2019-02-23T16:06:58.502Z,10.00
2019-02-23T16:09:27.677Z,10.00
2019-02-23T16:11:56.802Z,10.00
2019-02-23T16:14:25.966Z,10.00
2019-02-23T16:16:55.185Z,10.00
2019-02-23T16:19:24.355Z,10.00
2019-02-23T16:21:53.550Z,10.00
2019-02-23T16:24:22.721Z,10.00
2019-02-23T16:26:51.871Z,10.00
2019-02-23T16:29:21.011Z,9.90
2019-02-23T16:31:50.184Z,9.90
2019-02-23T16:34:19.319Z,9.90
2019-02-23T16:36:48.500Z,9.90
2019-02-23T16:39:17.660Z,9.90
2019-02-23T16:41:47.190Z,9.80
2019-02-23T16:44:16.965Z,9.80
2019-02-23T16:46:46.571Z,9.80
2019-02-23T16:49:15.852Z,9.80
2019-02-23T16:51:45.060Z,9.70
2019-02-23T16:54:14.240Z,9.70
2019-02-23T16:56:43.371Z,9.70
2019-02-23T16:59:12.543Z,9.60
2019-02-23T17:01:41.689Z,9.60
2019-02-23T17:04:10.844Z,9.50
2019-02-23T17:06:40.076Z,9.40
2019-02-23T17:09:09.261Z,9.40
2019-02-23T17:11:38.386Z,9.30
2019-02-23T17:14:07.540Z,9.20
2019-02-23T17:16:36.689Z,9.10
2019-02-23T17:19:05.894Z,9.00
2019-02-23T17:21:35.031Z,9.00
2019-02-23T17:24:05.862Z,8.90
2019-02-23T17:26:36.787Z,8.80
2019-02-23T17:29:07.127Z,8.70
2019-02-23T17:31:36.307Z,8.60
2019-02-23T17:34:07.165Z,8.50
2019-02-23T17:36:36.316Z,8.50
2019-02-23T17:39:05.986Z,8.40
2019-02-23T17:41:35.134Z,8.40
2019-02-23T17:44:04.286Z,8.30
2019-02-23T17:46:33.435Z,8.20
2019-02-23T17:49:02.620Z,8.20
2019-02-23T17:51:31.753Z,8.10
2019-02-23T17:54:00.901Z,8.10
2019-02-23T17:56:30.071Z,8.10
2019-02-23T17:58:59.262Z,8.10
2019-02-23T18:01:28.396Z,8.10
2019-02-23T18:03:57.571Z,8.00
2019-02-23T18:06:26.776Z,8.00
2019-02-23T18:08:55.929Z,8.00
2019-02-23T18:11:25.069Z,8.00
2019-02-23T18:13:54.203Z,8.00
2019-02-23T18:16:23.463Z,8.00
2019-02-23T18:18:54.253Z,8.00
2019-02-23T18:21:23.407Z,8.00
2019-02-23T18:23:52.650Z,8.00
2019-02-23T18:26:21.814Z,8.10
2019-02-23T18:28:50.994Z,8.10
2019-02-23T18:31:20.201Z,8.10
2019-02-23T18:33:49.364Z,8.00
2019-02-23T18:36:18.515Z,8.10
2019-02-23T18:38:47.673Z,8.10
2019-02-23T18:41:16.838Z,8.10
2019-02-23T18:43:45.980Z,8.10
2019-02-23T18:46:15.149Z,8.10
2019-02-23T18:48:44.522Z,8.00
2019-02-23T18:51:13.682Z,8.00
2019-02-23T18:53:42.810Z,8.00
2019-02-23T18:56:11.949Z,7.90
2019-02-23T18:58:41.135Z,7.90
2019-02-23T19:01:10.375Z,7.90
2019-02-23T19:03:39.513Z,7.80
2019-02-23T19:06:08.655Z,7.80
2019-02-23T19:08:37.798Z,7.80
2019-02-23T19:11:07.032Z,7.80
2019-02-23T19:13:36.173Z,7.70
2019-02-23T19:16:05.344Z,7.70
2019-02-23T19:18:34.495Z,7.70
2019-02-23T19:21:03.622Z,7.70
2019-02-23T19:23:32.778Z,7.70
2019-02-23T19:26:01.933Z,7.60
2019-02-23T19:28:31.066Z,7.60
2019-02-23T19:31:00.213Z,7.60
2019-02-23T19:33:29.383Z,7.60
2019-02-23T19:35:58.512Z,7.60
2019-02-23T19:38:27.662Z,7.50
2019-02-23T19:40:56.870Z,7.50
2019-02-23T19:43:26.051Z,7.50
2019-02-23T19:45:55.192Z,7.40
2019-02-23T19:48:24.353Z,7.40
2019-02-23T19:50:58.451Z,7.40
2019-02-23T19:53:27.613Z,7.40
2019-02-23T19:55:56.756Z,7.30
2019-02-23T19:58:25.963Z,7.30
2019-02-23T20:00:55.183Z,7.30
2019-02-23T20:03:24.313Z,7.20
2019-02-23T20:05:53.568Z,7.20
2019-02-23T20:08:22.711Z,7.20
2019-02-23T20:10:51.921Z,7.10
2019-02-23T20:13:21.098Z,7.10
2019-02-23T20:15:50.247Z,7.00
2019-02-23T20:18:19.412Z,7.00
2019-02-23T20:20:48.527Z,7.00
2019-02-23T20:23:17.674Z,7.00
2019-02-23T20:25:46.869Z,6.90
2019-02-23T20:28:16.018Z,6.90
2019-02-23T20:30:45.186Z,6.90
2019-02-23T20:33:14.328Z,6.90
2019-02-23T20:35:43.462Z,6.80
2019-02-23T20:38:12.612Z,6.80
2019-02-23T20:40:41.786Z,6.80
2019-02-23T20:43:10.900Z,6.80
2019-02-23T20:45:40.157Z,6.80
2019-02-23T20:48:09.359Z,6.80
2019-02-23T20:50:40.199Z,6.80
2019-02-23T20:53:09.445Z,6.80
2019-02-23T20:55:38.605Z,6.80
2019-02-23T20:58:07.825Z,6.70
2019-02-23T21:00:36.976Z,6.70
2019-02-23T21:03:06.123Z,6.70
2019-02-23T21:05:35.353Z,6.70
2019-02-23T21:08:04.727Z,6.70
2019-02-23T21:10:33.888Z,6.70
2019-02-23T21:13:03.034Z,6.70
2019-02-23T21:15:32.272Z,6.70
2019-02-23T21:18:01.421Z,6.70
2019-02-23T21:20:30.591Z,6.70
2019-02-23T21:22:59.745Z,6.80
2019-02-23T21:25:28.921Z,6.80
2019-02-23T21:27:58.173Z,6.80
2019-02-23T21:30:27.337Z,6.80
2019-02-23T21:32:56.585Z,6.80
2019-02-23T21:35:25.747Z,6.90
2019-02-23T21:37:54.915Z,6.90
2019-02-23T21:40:24.049Z,6.90
2019-02-23T21:42:53.186Z,6.90
2019-02-23T21:45:22.375Z,6.90
2019-02-23T21:47:51.502Z,6.90
2019-02-23T21:50:20.631Z,6.90
2019-02-23T21:52:49.768Z,6.90
2019-02-23T21:55:18.924Z,6.90
2019-02-23T21:57:48.083Z,6.80
2019-02-23T22:00:17.237Z,6.70
2019-02-23T22:02:46.396Z,6.70
2019-02-23T22:05:15.544Z,6.60
2019-02-23T22:07:44.694Z,6.50
2019-02-23T22:10:13.920Z,6.50
2019-02-23T22:12:43.060Z,6.40
2019-02-23T22:15:12.197Z,6.30
2019-02-23T22:17:41.381Z,6.30
2019-02-23T22:20:10.537Z,6.20
2019-02-23T22:22:39.678Z,6.20
2019-02-23T22:25:08.948Z,6.20
2019-02-23T22:27:40.137Z,6.10
2019-02-23T22:30:09.186Z,6.10
2019-02-23T22:32:38.341Z,6.00
2019-02-23T22:35:13.036Z,6.00
2019-02-23T22:37:42.194Z,6.00
2019-02-23T22:40:11.323Z,6.00
2019-02-23T22:42:40.460Z,5.90
2019-02-23T22:45:09.629Z,5.90
2019-02-23T22:47:38.757Z,5.90
2019-02-23T22:50:09.167Z,5.80
2019-02-23T22:52:38.307Z,5.80
2019-02-23T22:55:07.533Z,5.80
2019-02-23T22:57:40.709Z,5.70
2019-02-23T23:00:15.068Z,5.70
2019-02-23T23:02:44.268Z,5.70
2019-02-23T23:05:13.492Z,5.60
2019-02-23T23:07:44.242Z,5.60
2019-02-23T23:10:13.408Z,5.50
2019-02-23T23:12:42.590Z,5.50
2019-02-23T23:15:11.809Z,5.40
2019-02-23T23:17:40.940Z,5.40
2019-02-23T23:20:10.196Z,5.40
2019-02-23T23:22:39.322Z,5.30
2019-02-23T23:25:08.578Z,5.40
2019-02-23T23:27:37.704Z,5.30
2019-02-23T23:30:08.888Z,5.30
2019-02-23T23:32:38.020Z,5.30
2019-02-23T23:35:07.239Z,5.30
2019-02-23T23:37:36.374Z,5.30
2019-02-23T23:40:06.843Z,5.20
2019-02-23T23:42:35.957Z,5.20
2019-02-23T23:45:06.411Z,5.20
2019-02-23T23:47:35.551Z,5.20
2019-02-23T23:50:06.008Z,5.20
2019-02-23T23:52:35.200Z,5.20
2019-02-23T23:55:05.371Z,5.10
2019-02-23T23:57:34.508Z,5.10
